sensor_id;sensor_type;location;lat;lon;timestamp;pressure;altitude;pressure_sealevel;temperature;humidity
51926;BME280;37952;51.938;15.480;2023-07-13T00:01:28;99456.73;;;23.94;38.34
51926;BME280;37952;51.938;15.480;2023-07-13T00:04:31;99450.99;;;23.94;38.14
51926;BME280;37952;51.938;15.480;2023-07-13T00:07:36;99451.23;;;23.86;38.18
51926;BME280;37952;51.938;15.480;2023-07-13T00:10:40;99452.33;;;23.79;38.25
51926;BME280;37952;51.938;15.480;2023-07-13T00:13:44;99443.43;;;23.79;38.20
51926;BME280;37952;51.938;15.480;2023-07-13T00:16:47;99441.04;;;23.78;38.18
51926;BME280;37952;51.938;15.480;2023-07-13T00:19:50;99447.30;;;23.77;38.25
51926;BME280;37952;51.938;15.480;2023-07-13T00:22:54;99445.95;;;23.71;38.01
51926;BME280;37952;51.938;15.480;2023-07-13T00:25:57;99443.16;;;23.57;38.12
51926;BME280;37952;51.938;15.480;2023-07-13T00:29:00;99443.80;;;23.44;38.16
51926;BME280;37952;51.938;15.480;2023-07-13T00:32:04;99450.05;;;23.32;38.36
51926;BME280;37952;51.938;15.480;2023-07-13T00:35:07;99461.13;;;23.27;38.25
51926;BME280;37952;51.938;15.480;2023-07-13T00:38:11;99467.20;;;23.27;38.32
51926;BME280;37952;51.938;15.480;2023-07-13T00:41:14;99466.86;;;23.24;38.47
51926;BME280;37952;51.938;15.480;2023-07-13T00:44:19;99461.50;;;23.24;38.47
51926;BME280;37952;51.938;15.480;2023-07-13T00:47:23;99457.91;;;23.22;38.39
51926;BME280;37952;51.938;15.480;2023-07-13T00:50:25;99462.27;;;23.23;38.60
51926;BME280;37952;51.938;15.480;2023-07-13T00:53:31;99466.77;;;23.25;38.56
51926;BME280;37952;51.938;15.480;2023-07-13T00:56:35;99462.60;;;23.20;38.59
51926;BME280;37952;51.938;15.480;2023-07-13T00:59:45;99458.52;;;23.10;38.72
51926;BME280;37952;51.938;15.480;2023-07-13T01:02:49;99460.96;;;23.02;38.84
51926;BME280;37952;51.938;15.480;2023-07-13T01:05:52;99460.57;;;22.93;39.04
51926;BME280;37952;51.938;15.480;2023-07-13T01:08:57;99461.08;;;22.81;39.01
51926;BME280;37952;51.938;15.480;2023-07-13T01:12:01;99459.17;;;22.76;39.16
51926;BME280;37952;51.938;15.480;2023-07-13T01:15:32;99462.89;;;22.78;39.31
51926;BME280;37952;51.938;15.480;2023-07-13T01:18:29;99458.89;;;22.81;39.34
51926;BME280;37952;51.938;15.480;2023-07-13T01:21:32;99460.46;;;22.79;39.33
51926;BME280;37952;51.938;15.480;2023-07-13T01:24:36;99465.35;;;22.64;39.61
51926;BME280;37952;51.938;15.480;2023-07-13T01:27:39;99467.77;;;22.54;39.82
51926;BME280;37952;51.938;15.480;2023-07-13T01:30:45;99462.69;;;22.42;39.94
51926;BME280;37952;51.938;15.480;2023-07-13T01:33:48;99456.80;;;22.27;40.34
51926;BME280;37952;51.938;15.480;2023-07-13T01:36:52;99452.97;;;22.14;40.72
51926;BME280;37952;51.938;15.480;2023-07-13T01:39:56;99443.97;;;22.04;41.08
51926;BME280;37952;51.938;15.480;2023-07-13T01:42:59;99438.56;;;21.89;41.38
51926;BME280;37952;51.938;15.480;2023-07-13T01:46:02;99432.42;;;21.76;41.64
51926;BME280;37952;51.938;15.480;2023-07-13T01:49:24;99428.58;;;21.67;42.07
51926;BME280;37952;51.938;15.480;2023-07-13T01:52:26;99428.91;;;21.59;42.23
51926;BME280;37952;51.938;15.480;2023-07-13T01:55:30;99424.27;;;21.53;42.36
51926;BME280;37952;51.938;15.480;2023-07-13T01:58:33;99423.35;;;21.46;42.52
51926;BME280;37952;51.938;15.480;2023-07-13T02:01:36;99422.36;;;21.51;42.62
51926;BME280;37952;51.938;15.480;2023-07-13T02:04:40;99417.86;;;21.47;42.47
51926;BME280;37952;51.938;15.480;2023-07-13T02:07:43;99431.27;;;21.46;42.77
51926;BME280;37952;51.938;15.480;2023-07-13T02:10:46;99449.23;;;21.44;42.75
51926;BME280;37952;51.938;15.480;2023-07-13T02:13:49;99457.20;;;21.42;42.83
51926;BME280;37952;51.938;15.480;2023-07-13T02:16:52;99460.93;;;21.30;42.96
51926;BME280;37952;51.938;15.480;2023-07-13T02:19:55;99465.73;;;21.20;43.46
51926;BME280;37952;51.938;15.480;2023-07-13T02:22:58;99466.89;;;21.06;43.73
51926;BME280;37952;51.938;15.480;2023-07-13T02:26:03;99467.19;;;20.93;44.15
51926;BME280;37952;51.938;15.480;2023-07-13T02:29:06;99467.95;;;20.82;44.34
51926;BME280;37952;51.938;15.480;2023-07-13T02:32:09;99465.10;;;20.72;44.98
51926;BME280;37952;51.938;15.480;2023-07-13T02:35:13;99462.70;;;20.63;45.04
51926;BME280;37952;51.938;15.480;2023-07-13T02:38:16;99466.46;;;20.56;45.26
51926;BME280;37952;51.938;15.480;2023-07-13T02:41:18;99481.48;;;20.53;45.61
51926;BME280;37952;51.938;15.480;2023-07-13T02:44:21;99478.88;;;20.56;45.72
51926;BME280;37952;51.938;15.480;2023-07-13T02:47:24;99465.44;;;20.52;45.77
51926;BME280;37952;51.938;15.480;2023-07-13T02:50:27;99466.59;;;20.53;45.92
51926;BME280;37952;51.938;15.480;2023-07-13T02:53:30;99461.53;;;20.54;46.09
51926;BME280;37952;51.938;15.480;2023-07-13T02:56:33;99449.03;;;20.50;46.40
51926;BME280;37952;51.938;15.480;2023-07-13T02:59:36;99446.92;;;20.56;46.39
51926;BME280;37952;51.938;15.480;2023-07-13T03:02:39;99444.67;;;20.67;46.48
51926;BME280;37952;51.938;15.480;2023-07-13T03:05:44;99452.64;;;20.75;46.28
51926;BME280;37952;51.938;15.480;2023-07-13T03:08:47;99461.80;;;20.69;46.42
51926;BME280;37952;51.938;15.480;2023-07-13T03:11:55;99457.57;;;20.60;46.60
51926;BME280;37952;51.938;15.480;2023-07-13T03:14:58;99453.48;;;20.57;46.90
51926;BME280;37952;51.938;15.480;2023-07-13T03:18:00;99457.80;;;20.60;46.99
51926;BME280;37952;51.938;15.480;2023-07-13T03:21:04;99459.82;;;20.65;47.27
51926;BME280;37952;51.938;15.480;2023-07-13T03:24:07;99461.23;;;20.70;47.25
51926;BME280;37952;51.938;15.480;2023-07-13T03:27:11;99465.90;;;20.73;47.08
51926;BME280;37952;51.938;15.480;2023-07-13T03:30:14;99473.42;;;20.76;47.36
51926;BME280;37952;51.938;15.480;2023-07-13T03:33:16;99471.40;;;20.80;47.55
51926;BME280;37952;51.938;15.480;2023-07-13T03:36:21;99476.38;;;20.84;47.33
51926;BME280;37952;51.938;15.480;2023-07-13T03:39:25;99474.16;;;20.79;47.52
51926;BME280;37952;51.938;15.480;2023-07-13T03:42:27;99481.11;;;20.82;47.85
51926;BME280;37952;51.938;15.480;2023-07-13T03:45:30;99482.53;;;20.87;48.01
51926;BME280;37952;51.938;15.480;2023-07-13T03:48:33;99480.86;;;20.92;47.92
51926;BME280;37952;51.938;15.480;2023-07-13T03:51:36;99481.61;;;20.95;48.46
51926;BME280;37952;51.938;15.480;2023-07-13T03:54:39;99482.58;;;21.01;48.35
51926;BME280;37952;51.938;15.480;2023-07-13T03:57:42;99474.39;;;21.08;48.25
51926;BME280;37952;51.938;15.480;2023-07-13T04:00:44;99478.67;;;21.15;48.38
51926;BME280;37952;51.938;15.480;2023-07-13T04:03:48;99489.27;;;21.21;48.30
51926;BME280;37952;51.938;15.480;2023-07-13T04:06:51;99493.76;;;21.24;48.26
51926;BME280;37952;51.938;15.480;2023-07-13T04:09:55;99493.02;;;21.28;48.39
51926;BME280;37952;51.938;15.480;2023-07-13T04:12:58;99491.77;;;21.31;48.33
51926;BME280;37952;51.938;15.480;2023-07-13T04:16:01;99495.95;;;21.33;48.34
51926;BME280;37952;51.938;15.480;2023-07-13T04:19:04;99501.40;;;21.34;48.34
51926;BME280;37952;51.938;15.480;2023-07-13T04:22:07;99505.51;;;21.35;48.59
51926;BME280;37952;51.938;15.480;2023-07-13T04:25:10;99509.77;;;21.35;48.58
51926;BME280;37952;51.938;15.480;2023-07-13T04:28:13;99513.23;;;21.34;48.78
51926;BME280;37952;51.938;15.480;2023-07-13T04:31:16;99519.98;;;21.38;48.87
51926;BME280;37952;51.938;15.480;2023-07-13T04:34:19;99523.61;;;21.38;48.93
51926;BME280;37952;51.938;15.480;2023-07-13T04:37:22;99530.62;;;21.33;49.02
51926;BME280;37952;51.938;15.480;2023-07-13T04:40:25;99537.98;;;21.30;49.41
51926;BME280;37952;51.938;15.480;2023-07-13T04:43:29;99540.07;;;21.30;49.37
51926;BME280;37952;51.938;15.480;2023-07-13T04:46:32;99538.52;;;21.26;49.57
51926;BME280;37952;51.938;15.480;2023-07-13T04:49:35;99545.15;;;21.19;49.66
51926;BME280;37952;51.938;15.480;2023-07-13T04:52:38;99553.41;;;21.18;49.97
51926;BME280;37952;51.938;15.480;2023-07-13T04:55:41;99558.24;;;21.19;50.08
51926;BME280;37952;51.938;15.480;2023-07-13T04:58:44;99570.65;;;21.14;49.95
51926;BME280;37952;51.938;15.480;2023-07-13T05:01:47;99572.30;;;21.04;50.07
51926;BME280;37952;51.938;15.480;2023-07-13T05:04:50;99577.36;;;21.00;50.23
51926;BME280;37952;51.938;15.480;2023-07-13T05:07:53;99575.64;;;21.02;50.19
51926;BME280;37952;51.938;15.480;2023-07-13T05:10:56;99582.40;;;21.00;50.20
51926;BME280;37952;51.938;15.480;2023-07-13T05:13:59;99588.24;;;20.90;50.39
51926;BME280;37952;51.938;15.480;2023-07-13T05:17:04;99585.75;;;20.81;50.52
51926;BME280;37952;51.938;15.480;2023-07-13T05:20:08;99582.77;;;20.81;50.49
51926;BME280;37952;51.938;15.480;2023-07-13T05:23:11;99584.66;;;20.80;50.76
51926;BME280;37952;51.938;15.480;2023-07-13T05:26:14;99584.83;;;20.68;51.28
51926;BME280;37952;51.938;15.480;2023-07-13T05:29:17;99585.55;;;20.52;51.59
51926;BME280;37952;51.938;15.480;2023-07-13T05:32:20;99589.98;;;20.47;51.81
51926;BME280;37952;51.938;15.480;2023-07-13T05:35:22;99591.63;;;20.46;51.85
51926;BME280;37952;51.938;15.480;2023-07-13T05:38:26;99594.08;;;20.46;52.14
51926;BME280;37952;51.938;15.480;2023-07-13T05:41:28;99597.09;;;20.45;52.06
51926;BME280;37952;51.938;15.480;2023-07-13T05:44:31;99598.62;;;20.51;52.32
51926;BME280;37952;51.938;15.480;2023-07-13T05:47:34;99601.89;;;20.54;52.35
51926;BME280;37952;51.938;15.480;2023-07-13T05:50:38;99600.72;;;20.58;52.22
51926;BME280;37952;51.938;15.480;2023-07-13T05:53:41;99594.73;;;20.59;52.23
51926;BME280;37952;51.938;15.480;2023-07-13T05:56:44;99600.04;;;20.63;52.28
51926;BME280;37952;51.938;15.480;2023-07-13T05:59:46;99609.17;;;20.63;52.24
51926;BME280;37952;51.938;15.480;2023-07-13T06:02:49;99604.11;;;20.58;52.33
51926;BME280;37952;51.938;15.480;2023-07-13T06:05:52;99608.22;;;20.60;52.51
51926;BME280;37952;51.938;15.480;2023-07-13T06:08:55;99612.69;;;20.62;52.29
51926;BME280;37952;51.938;15.480;2023-07-13T06:11:57;99616.67;;;20.61;52.48
51926;BME280;37952;51.938;15.480;2023-07-13T06:15:00;99622.52;;;20.62;52.49
51926;BME280;37952;51.938;15.480;2023-07-13T06:18:03;99623.83;;;20.63;52.50
51926;BME280;37952;51.938;15.480;2023-07-13T06:21:15;99624.98;;;20.61;52.73
51926;BME280;37952;51.938;15.480;2023-07-13T06:24:18;99618.90;;;20.60;52.57
51926;BME280;37952;51.938;15.480;2023-07-13T06:27:20;99615.67;;;20.61;52.75
51926;BME280;37952;51.938;15.480;2023-07-13T06:30:23;99615.94;;;20.58;52.60
51926;BME280;37952;51.938;15.480;2023-07-13T06:33:26;99609.41;;;20.54;52.81
51926;BME280;37952;51.938;15.480;2023-07-13T06:36:29;99617.58;;;20.61;52.91
51926;BME280;37952;51.938;15.480;2023-07-13T06:39:32;99618.58;;;20.65;52.69
51926;BME280;37952;51.938;15.480;2023-07-13T06:42:35;99611.97;;;20.57;52.92
51926;BME280;37952;51.938;15.480;2023-07-13T06:45:44;99619.19;;;20.65;53.06
51926;BME280;37952;51.938;15.480;2023-07-13T06:48:52;99617.85;;;20.69;53.11
51926;BME280;37952;51.938;15.480;2023-07-13T06:51:55;99613.02;;;20.76;53.32
51926;BME280;37952;51.938;15.480;2023-07-13T06:54:57;99617.56;;;20.85;53.32
51926;BME280;37952;51.938;15.480;2023-07-13T06:58:00;99621.26;;;20.93;52.96
51926;BME280;37952;51.938;15.480;2023-07-13T07:01:04;99626.20;;;20.97;53.02
51926;BME280;37952;51.938;15.480;2023-07-13T07:04:09;99626.77;;;21.02;52.97
51926;BME280;37952;51.938;15.480;2023-07-13T07:07:12;99627.05;;;21.08;52.89
51926;BME280;37952;51.938;15.480;2023-07-13T07:10:15;99624.25;;;21.12;52.98
51926;BME280;37952;51.938;15.480;2023-07-13T07:13:18;99626.34;;;21.19;52.90
51926;BME280;37952;51.938;15.480;2023-07-13T07:16:22;99627.12;;;21.24;52.67
51926;BME280;37952;51.938;15.480;2023-07-13T07:19:25;99620.93;;;21.28;52.61
51926;BME280;37952;51.938;15.480;2023-07-13T07:22:27;99620.73;;;21.35;52.60
51926;BME280;37952;51.938;15.480;2023-07-13T07:25:30;99612.55;;;21.42;52.60
51926;BME280;37952;51.938;15.480;2023-07-13T07:28:35;99614.61;;;21.50;52.23
51926;BME280;37952;51.938;15.480;2023-07-13T07:31:40;99618.20;;;21.60;52.16
51926;BME280;37952;51.938;15.480;2023-07-13T07:34:46;99622.15;;;21.68;51.98
51926;BME280;37952;51.938;15.480;2023-07-13T07:37:49;99621.65;;;21.75;51.67
51926;BME280;37952;51.938;15.480;2023-07-13T07:40:53;99618.84;;;21.81;51.30
51926;BME280;37952;51.938;15.480;2023-07-13T07:43:59;99620.98;;;21.88;51.22
51926;BME280;37952;51.938;15.480;2023-07-13T07:47:01;99621.51;;;21.91;50.72
51926;BME280;37952;51.938;15.480;2023-07-13T07:50:05;99619.09;;;21.93;50.37
51926;BME280;37952;51.938;15.480;2023-07-13T07:53:08;99620.77;;;21.96;50.36
51926;BME280;37952;51.938;15.480;2023-07-13T07:56:13;99620.03;;;21.96;50.18
51926;BME280;37952;51.938;15.480;2023-07-13T07:59:19;99619.52;;;21.98;49.72
51926;BME280;37952;51.938;15.480;2023-07-13T08:02:25;99620.52;;;21.98;49.33
51926;BME280;37952;51.938;15.480;2023-07-13T08:05:31;99620.10;;;22.02;49.10
51926;BME280;37952;51.938;15.480;2023-07-13T08:08:37;99626.70;;;22.07;49.13
51926;BME280;37952;51.938;15.480;2023-07-13T08:11:39;99629.41;;;22.12;48.81
51926;BME280;37952;51.938;15.480;2023-07-13T08:14:49;99629.21;;;22.15;48.78
51926;BME280;37952;51.938;15.480;2023-07-13T08:17:56;99627.30;;;22.18;48.43
51926;BME280;37952;51.938;15.480;2023-07-13T08:21:04;99630.04;;;22.23;47.85
51926;BME280;37952;51.938;15.480;2023-07-13T08:24:06;99630.40;;;22.26;47.99
51926;BME280;37952;51.938;15.480;2023-07-13T08:27:13;99627.19;;;22.31;47.90
51926;BME280;37952;51.938;15.480;2023-07-13T08:30:15;99626.93;;;22.36;47.87
51926;BME280;37952;51.938;15.480;2023-07-13T08:33:20;99631.02;;;22.41;47.67
51926;BME280;37952;51.938;15.480;2023-07-13T08:36:25;99635.56;;;22.44;47.53
51926;BME280;37952;51.938;15.480;2023-07-13T08:39:30;99640.00;;;22.44;47.40
51926;BME280;37952;51.938;15.480;2023-07-13T08:42:42;99636.83;;;22.44;47.21
51926;BME280;37952;51.938;15.480;2023-07-13T08:45:52;99634.64;;;22.44;47.23
51926;BME280;37952;51.938;15.480;2023-07-13T08:48:59;99634.91;;;22.46;47.16
51926;BME280;37952;51.938;15.480;2023-07-13T08:52:10;99637.28;;;22.50;47.24
51926;BME280;37952;51.938;15.480;2023-07-13T08:55:20;99635.70;;;22.49;47.12
51926;BME280;37952;51.938;15.480;2023-07-13T08:58:25;99643.45;;;22.47;47.00
51926;BME280;37952;51.938;15.480;2023-07-13T09:01:50;99645.48;;;22.49;47.14
51926;BME280;37952;51.938;15.480;2023-07-13T09:05:24;99646.88;;;22.51;46.98
51926;BME280;37952;51.938;15.480;2023-07-13T09:08:42;99647.11;;;22.50;46.90
51926;BME280;37952;51.938;15.480;2023-07-13T09:12:01;99653.23;;;22.45;46.18
51926;BME280;37952;51.938;15.480;2023-07-13T09:15:22;99658.27;;;22.37;46.41
51926;BME280;37952;51.938;15.480;2023-07-13T09:18:37;99649.88;;;22.35;46.73
51926;BME280;37952;51.938;15.480;2023-07-13T09:21:42;99659.20;;;22.37;46.08
51926;BME280;37952;51.938;15.480;2023-07-13T09:24:58;99657.73;;;22.30;46.14
51926;BME280;37952;51.938;15.480;2023-07-13T09:28:27;99655.80;;;22.30;46.45
51926;BME280;37952;51.938;15.480;2023-07-13T09:31:38;99658.17;;;22.38;46.61
51926;BME280;37952;51.938;15.480;2023-07-13T09:34:41;99650.54;;;22.45;46.52
51926;BME280;37952;51.938;15.480;2023-07-13T09:37:45;99654.34;;;22.53;46.35
51926;BME280;37952;51.938;15.480;2023-07-13T09:41:11;99651.83;;;22.63;46.31
51926;BME280;37952;51.938;15.480;2023-07-13T09:44:19;99659.50;;;22.74;46.20
51926;BME280;37952;51.938;15.480;2023-07-13T09:47:32;99660.59;;;22.82;46.23
51926;BME280;37952;51.938;15.480;2023-07-13T09:50:42;99662.44;;;22.91;46.18
51926;BME280;37952;51.938;15.480;2023-07-13T09:53:45;99667.45;;;22.98;45.89
51926;BME280;37952;51.938;15.480;2023-07-13T09:56:54;99660.23;;;22.93;45.43
51926;BME280;37952;51.938;15.480;2023-07-13T09:59:57;99652.23;;;22.92;45.93
51926;BME280;37952;51.938;15.480;2023-07-13T10:03:16;99655.61;;;23.01;45.76
51926;BME280;37952;51.938;15.480;2023-07-13T10:06:22;99653.54;;;23.07;45.62
51926;BME280;37952;51.938;15.480;2023-07-13T10:09:24;99656.17;;;23.13;45.16
51926;BME280;37952;51.938;15.480;2023-07-13T10:12:29;99650.28;;;23.16;45.05
51926;BME280;37952;51.938;15.480;2023-07-13T10:15:32;99654.08;;;23.24;44.79
51926;BME280;37952;51.938;15.480;2023-07-13T10:21:53;99663.10;;;23.34;43.73
51926;BME280;37952;51.938;15.480;2023-07-13T10:25:02;99653.60;;;23.32;44.06
51926;BME280;37952;51.938;15.480;2023-07-13T10:28:31;99662.04;;;23.39;44.22
51926;BME280;37952;51.938;15.480;2023-07-13T10:31:40;99665.73;;;23.44;43.78
51926;BME280;37952;51.938;15.480;2023-07-13T10:34:46;99667.31;;;23.48;42.48
51926;BME280;37952;51.938;15.480;2023-07-13T10:38:07;99665.81;;;23.47;42.63
51926;BME280;37952;51.938;15.480;2023-07-13T10:41:18;99662.82;;;23.47;42.57
51926;BME280;37952;51.938;15.480;2023-07-13T10:44:25;99666.05;;;23.50;42.18
51926;BME280;37952;51.938;15.480;2023-07-13T10:47:31;99662.41;;;23.45;41.95
51926;BME280;37952;51.938;15.480;2023-07-13T10:50:35;99660.95;;;23.42;42.26
51926;BME280;37952;51.938;15.480;2023-07-13T10:53:42;99670.00;;;23.50;42.26
51926;BME280;37952;51.938;15.480;2023-07-13T10:56:46;99661.63;;;23.55;42.05
51926;BME280;37952;51.938;15.480;2023-07-13T11:03:13;99663.56;;;23.69;41.77
51926;BME280;37952;51.938;15.480;2023-07-13T11:09:38;99673.36;;;23.82;41.11
51926;BME280;37952;51.938;15.480;2023-07-13T11:12:51;99675.02;;;23.74;41.21
51926;BME280;37952;51.938;15.480;2023-07-13T11:15:54;99676.06;;;23.72;40.96
51926;BME280;37952;51.938;15.480;2023-07-13T11:28:31;99675.37;;;23.68;40.69
51926;BME280;37952;51.938;15.480;2023-07-13T11:31:34;99672.02;;;23.74;40.90
51926;BME280;37952;51.938;15.480;2023-07-13T11:34:38;99672.27;;;23.84;40.61
51926;BME280;37952;51.938;15.480;2023-07-13T11:37:42;99661.38;;;23.89;40.62
51926;BME280;37952;51.938;15.480;2023-07-13T11:40:46;99658.75;;;23.97;40.74
51926;BME280;37952;51.938;15.480;2023-07-13T11:44:17;99657.41;;;24.05;40.85
51926;BME280;37952;51.938;15.480;2023-07-13T11:47:22;99650.91;;;24.09;41.00
51926;BME280;37952;51.938;15.480;2023-07-13T11:50:25;99650.86;;;24.18;40.86
51926;BME280;37952;51.938;15.480;2023-07-13T11:53:29;99647.03;;;24.26;40.52
51926;BME280;37952;51.938;15.480;2023-07-13T11:56:36;99654.00;;;24.35;40.33
51926;BME280;37952;51.938;15.480;2023-07-13T11:59:40;99653.65;;;24.37;40.10
51926;BME280;37952;51.938;15.480;2023-07-13T12:02:45;99652.08;;;24.38;40.20
51926;BME280;37952;51.938;15.480;2023-07-13T12:06:02;99656.02;;;24.39;40.06
51926;BME280;37952;51.938;15.480;2023-07-13T12:09:12;99657.55;;;24.36;39.96
51926;BME280;37952;51.938;15.480;2023-07-13T12:12:18;99654.51;;;24.36;40.11
51926;BME280;37952;51.938;15.480;2023-07-13T12:15:22;99649.97;;;24.37;40.36
51926;BME280;37952;51.938;15.480;2023-07-13T12:18:29;99647.63;;;24.41;40.43
51926;BME280;37952;51.938;15.480;2023-07-13T12:21:37;99648.38;;;24.48;40.27
51926;BME280;37952;51.938;15.480;2023-07-13T12:24:41;99653.95;;;24.48;39.99
51926;BME280;37952;51.938;15.480;2023-07-13T12:27:48;99660.15;;;24.47;39.58
51926;BME280;37952;51.938;15.480;2023-07-13T12:30:58;99663.79;;;24.39;39.24
51926;BME280;37952;51.938;15.480;2023-07-13T12:34:06;99666.49;;;24.33;39.33
51926;BME280;37952;51.938;15.480;2023-07-13T12:37:12;99660.90;;;24.32;39.91
51926;BME280;37952;51.938;15.480;2023-07-13T12:40:16;99658.65;;;24.38;39.90
51926;BME280;37952;51.938;15.480;2023-07-13T12:43:22;99656.25;;;24.42;39.84
51926;BME280;37952;51.938;15.480;2023-07-13T12:46:26;99659.52;;;24.44;39.99
51926;BME280;37952;51.938;15.480;2023-07-13T12:49:33;99662.90;;;24.48;40.17
51926;BME280;37952;51.938;15.480;2023-07-13T12:52:39;99655.17;;;24.48;40.21
51926;BME280;37952;51.938;15.480;2023-07-13T12:55:49;99656.50;;;24.52;40.10
51926;BME280;37952;51.938;15.480;2023-07-13T12:58:58;99655.76;;;24.58;40.10
51926;BME280;37952;51.938;15.480;2023-07-13T13:02:02;99661.83;;;24.64;40.28
51926;BME280;37952;51.938;15.480;2023-07-13T13:05:12;99653.30;;;24.72;40.07
51926;BME280;37952;51.938;15.480;2023-07-13T13:08:16;99643.66;;;24.84;40.14
51926;BME280;37952;51.938;15.480;2023-07-13T13:11:21;99640.20;;;24.90;40.08
51926;BME280;37952;51.938;15.480;2023-07-13T13:14:32;99640.04;;;24.96;39.99
51926;BME280;37952;51.938;15.480;2023-07-13T13:17:35;99638.36;;;25.03;40.02
51926;BME280;37952;51.938;15.480;2023-07-13T13:20:38;99645.36;;;25.12;39.35
51926;BME280;37952;51.938;15.480;2023-07-13T13:23:41;99635.64;;;25.11;39.44
51926;BME280;37952;51.938;15.480;2023-07-13T13:26:44;99635.27;;;25.11;39.39
51926;BME280;37952;51.938;15.480;2023-07-13T13:29:49;99641.69;;;25.07;39.16
51926;BME280;37952;51.938;15.480;2023-07-13T13:32:54;99643.30;;;24.97;39.18
51926;BME280;37952;51.938;15.480;2023-07-13T13:35:57;99645.84;;;24.94;39.14
51926;BME280;37952;51.938;15.480;2023-07-13T13:39:00;99644.23;;;25.00;39.05
51926;BME280;37952;51.938;15.480;2023-07-13T13:42:04;99647.60;;;25.05;39.18
51926;BME280;37952;51.938;15.480;2023-07-13T13:45:11;99649.36;;;25.09;39.13
51926;BME280;37952;51.938;15.480;2023-07-13T13:48:32;99641.05;;;25.19;39.17
51926;BME280;37952;51.938;15.480;2023-07-13T13:51:36;99644.69;;;25.30;38.76
51926;BME280;37952;51.938;15.480;2023-07-13T13:54:38;99644.83;;;25.39;38.99
51926;BME280;37952;51.938;15.480;2023-07-13T13:57:44;99649.06;;;25.53;39.03
51926;BME280;37952;51.938;15.480;2023-07-13T14:00:48;99650.66;;;25.67;38.85
51926;BME280;37952;51.938;15.480;2023-07-13T14:03:52;99646.73;;;25.82;38.65
51926;BME280;37952;51.938;15.480;2023-07-13T14:06:55;99652.88;;;25.84;38.34
51926;BME280;37952;51.938;15.480;2023-07-13T14:09:58;99636.07;;;25.77;38.23
51926;BME280;37952;51.938;15.480;2023-07-13T14:13:02;99642.81;;;25.87;38.47
51926;BME280;37952;51.938;15.480;2023-07-13T14:16:19;99643.98;;;26.00;37.97
51926;BME280;37952;51.938;15.480;2023-07-13T14:19:22;99646.98;;;26.01;37.88
51926;BME280;37952;51.938;15.480;2023-07-13T14:22:26;99647.54;;;26.02;37.86
51926;BME280;37952;51.938;15.480;2023-07-13T14:25:29;99648.64;;;26.05;37.90
51926;BME280;37952;51.938;15.480;2023-07-13T14:28:32;99650.09;;;26.09;37.90
51926;BME280;37952;51.938;15.480;2023-07-13T14:31:35;99652.77;;;26.15;37.82
51926;BME280;37952;51.938;15.480;2023-07-13T14:34:39;99658.54;;;26.18;37.67
51926;BME280;37952;51.938;15.480;2023-07-13T14:37:44;99651.48;;;26.14;37.42
51926;BME280;37952;51.938;15.480;2023-07-13T14:40:49;99656.29;;;26.10;37.44
51926;BME280;37952;51.938;15.480;2023-07-13T14:43:52;99660.53;;;26.06;36.77
51926;BME280;37952;51.938;15.480;2023-07-13T14:46:58;99653.39;;;25.90;36.52
51926;BME280;37952;51.938;15.480;2023-07-13T14:50:02;99651.30;;;25.80;36.54
51926;BME280;37952;51.938;15.480;2023-07-13T14:53:10;99655.38;;;25.73;36.44
51926;BME280;37952;51.938;15.480;2023-07-13T14:56:13;99653.07;;;25.63;36.76
51926;BME280;37952;51.938;15.480;2023-07-13T14:59:18;99656.41;;;25.63;36.73
51926;BME280;37952;51.938;15.480;2023-07-13T15:02:30;99645.01;;;25.59;36.64
51926;BME280;37952;51.938;15.480;2023-07-13T15:05:34;99648.10;;;25.57;36.41
51926;BME280;37952;51.938;15.480;2023-07-13T15:08:37;99643.81;;;25.48;36.50
51926;BME280;37952;51.938;15.480;2023-07-13T15:11:40;99640.70;;;25.44;36.55
51926;BME280;37952;51.938;15.480;2023-07-13T15:14:44;99643.62;;;25.46;36.62
51926;BME280;37952;51.938;15.480;2023-07-13T15:17:47;99642.19;;;25.57;36.19
51926;BME280;37952;51.938;15.480;2023-07-13T15:20:51;99641.45;;;25.54;35.81
51926;BME280;37952;51.938;15.480;2023-07-13T15:23:58;99635.19;;;25.48;35.77
51926;BME280;37952;51.938;15.480;2023-07-13T15:27:01;99637.63;;;25.40;35.92
51926;BME280;37952;51.938;15.480;2023-07-13T15:30:04;99629.98;;;25.36;35.70
51926;BME280;37952;51.938;15.480;2023-07-13T15:33:13;99627.31;;;25.36;35.82
51926;BME280;37952;51.938;15.480;2023-07-13T15:36:18;99622.65;;;25.40;36.03
51926;BME280;37952;51.938;15.480;2023-07-13T15:39:21;99623.26;;;25.45;36.10
51926;BME280;37952;51.938;15.480;2023-07-13T15:42:24;99626.01;;;25.49;35.87
51926;BME280;37952;51.938;15.480;2023-07-13T15:45:27;99624.54;;;25.44;35.54
51926;BME280;37952;51.938;15.480;2023-07-13T15:48:30;99619.42;;;25.40;35.83
51926;BME280;37952;51.938;15.480;2023-07-13T15:51:34;99619.95;;;25.47;35.86
51926;BME280;37952;51.938;15.480;2023-07-13T15:54:38;99627.30;;;25.60;35.70
51926;BME280;37952;51.938;15.480;2023-07-13T15:57:44;99626.33;;;25.72;35.58
51926;BME280;37952;51.938;15.480;2023-07-13T16:00:48;99630.44;;;25.81;35.85
51926;BME280;37952;51.938;15.480;2023-07-13T16:03:56;99629.10;;;25.87;35.34
51926;BME280;37952;51.938;15.480;2023-07-13T16:06:59;99630.88;;;25.91;35.45
51926;BME280;37952;51.938;15.480;2023-07-13T16:10:01;99637.17;;;25.98;35.10
51926;BME280;37952;51.938;15.480;2023-07-13T16:13:10;99637.86;;;25.89;34.58
51926;BME280;37952;51.938;15.480;2023-07-13T16:16:16;99644.25;;;25.71;34.82
51926;BME280;37952;51.938;15.480;2023-07-13T16:19:19;99648.70;;;25.62;34.96
51926;BME280;37952;51.938;15.480;2023-07-13T16:22:32;99650.11;;;25.54;35.02
51926;BME280;37952;51.938;15.480;2023-07-13T16:25:35;99652.69;;;25.48;35.37
51926;BME280;37952;51.938;15.480;2023-07-13T16:28:38;99645.56;;;25.47;35.50